createdAt,value
2022-10-17T00:01:53.702Z,13.26
2022-10-17T00:04:24.516Z,13.34
2022-10-17T00:06:53.311Z,13.45
2022-10-17T00:09:27.145Z,13.44
2022-10-17T00:11:54.612Z,13.38
2022-10-17T00:14:24.185Z,13.31
2022-10-17T00:17:21.702Z,13.46
2022-10-17T00:20:12.060Z,13.47
2022-10-17T00:23:01.064Z,13.19
2022-10-17T00:25:36.145Z,13.43
2022-10-17T00:29:20.937Z,13.31
2022-10-17T00:32:50.632Z,13.40
2022-10-17T00:49:09.372Z,12.45
2022-10-17T00:52:13.997Z,12.07
2022-10-17T01:02:11.983Z,11.92
2022-10-17T01:05:02.869Z,12.05
2022-10-17T01:14:54.780Z,11.94
2022-10-17T01:18:16.437Z,11.85
2022-10-17T01:21:20.484Z,12.07
2022-10-17T01:24:13.328Z,12.26
2022-10-17T01:27:32.843Z,12.45
2022-10-17T01:30:22.930Z,12.41
2022-10-17T01:33:18.789Z,12.43
2022-10-17T01:39:29.990Z,12.40
2022-10-17T01:42:35.036Z,12.31
2022-10-17T01:45:25.848Z,12.38
2022-10-17T01:48:10.493Z,12.42
2022-10-17T01:50:51.495Z,12.56
2022-10-17T01:54:01.068Z,12.47
2022-10-17T01:56:39.258Z,12.34
2022-10-17T01:59:42.467Z,12.15
2022-10-17T02:02:17.652Z,12.29
2022-10-17T02:04:52.656Z,12.35
2022-10-17T02:07:27.124Z,12.30
2022-10-17T02:09:57.260Z,12.24
2022-10-17T02:12:51.992Z,12.42
2022-10-17T02:15:54.807Z,12.44
2022-10-17T02:18:44.195Z,12.22
2022-10-17T02:21:37.154Z,11.91
2022-10-17T02:24:49.130Z,11.86
2022-10-17T02:27:40.626Z,11.89
2022-10-17T02:30:42.154Z,12.01
2022-10-17T02:34:04.480Z,11.90
2022-10-17T02:36:56.560Z,11.76
2022-10-17T02:39:39.197Z,11.72
2022-10-17T02:42:13.720Z,11.79
2022-10-17T02:44:46.050Z,11.92
2022-10-17T02:47:50.798Z,11.97
2022-10-17T02:50:26.741Z,11.68
2022-10-17T02:53:03.297Z,11.80
2022-10-17T02:55:44.362Z,11.43
2022-10-17T02:58:24.031Z,11.64
2022-10-17T03:00:57.202Z,11.42
2022-10-17T03:03:43.148Z,11.84
2022-10-17T03:06:14.119Z,11.86
2022-10-17T03:08:44.033Z,11.95
2022-10-17T03:11:17.771Z,11.96
2022-10-17T03:13:47.861Z,11.86
2022-10-17T03:16:18.032Z,11.88
2022-10-17T03:18:59.573Z,11.99
2022-10-17T03:21:31.951Z,12.07
2022-10-17T03:24:03.146Z,11.71
2022-10-17T03:26:30.039Z,11.63
2022-10-17T03:29:00.028Z,11.77
2022-10-17T03:31:31.036Z,11.79
2022-10-17T03:34:15.272Z,11.90
2022-10-17T03:36:55.288Z,11.77
2022-10-17T03:39:28.988Z,11.79
2022-10-17T03:42:01.047Z,11.81
2022-10-17T03:44:32.095Z,11.90
2022-10-17T03:46:59.802Z,11.75
2022-10-17T03:49:40.433Z,11.78
2022-10-17T03:52:48.464Z,11.72
2022-10-17T03:56:09.328Z,11.65
2022-10-17T03:59:08.866Z,12.02
2022-10-17T04:01:57.474Z,11.50
2022-10-17T04:04:48.234Z,12.03
2022-10-17T04:07:38.156Z,12.05
2022-10-17T04:10:06.003Z,12.02
2022-10-17T04:12:59.642Z,11.91
2022-10-17T04:15:49.764Z,11.38
2022-10-17T04:18:22.864Z,11.69
2022-10-17T04:20:58.762Z,11.81
2022-10-17T04:24:06.115Z,11.90
2022-10-17T04:27:20.260Z,11.81
2022-10-17T04:30:12.729Z,11.74
2022-10-17T04:33:04.439Z,11.42
2022-10-17T04:36:23.707Z,11.22
2022-10-17T04:41:42.016Z,11.27
2022-10-17T04:44:22.957Z,11.32
2022-10-17T04:47:20.393Z,11.63
2022-10-17T04:50:20.906Z,11.64
2022-10-17T04:53:33.918Z,11.70
2022-10-17T04:56:23.476Z,11.53
2022-10-17T04:59:16.376Z,11.68
2022-10-17T05:02:29.791Z,11.56
2022-10-17T05:05:26.508Z,11.76
2022-10-17T05:08:20.476Z,11.66
2022-10-17T05:11:14.675Z,11.37
2022-10-17T05:14:22.823Z,11.43
2022-10-17T05:17:11.216Z,11.28
2022-10-17T05:19:49.573Z,11.48
2022-10-17T05:22:39.679Z,11.15
2022-10-17T05:25:50.764Z,11.36
2022-10-17T05:28:44.147Z,11.38
2022-10-17T05:31:45.480Z,11.37
2022-10-17T05:34:42.828Z,11.32
2022-10-17T05:37:54.359Z,11.44
2022-10-17T05:40:46.660Z,11.53
2022-10-17T05:43:45.180Z,11.50
2022-10-17T05:46:54.101Z,11.57
2022-10-17T05:50:06.536Z,11.35
2022-10-17T05:53:17.251Z,11.68
2022-10-17T05:56:07.249Z,11.49
2022-10-17T05:58:57.397Z,11.65
2022-10-17T06:01:49.780Z,11.59
2022-10-17T06:04:45.643Z,11.70
2022-10-17T06:07:13.438Z,11.78
2022-10-17T06:10:27.195Z,11.29
2022-10-17T06:13:41.573Z,11.31
2022-10-17T06:16:30.099Z,11.56
2022-10-17T06:19:37.789Z,11.70
2022-10-17T06:22:19.786Z,11.47
2022-10-17T06:24:59.983Z,11.49
2022-10-17T06:27:50.710Z,11.57
2022-10-17T06:30:41.522Z,11.64
2022-10-17T06:33:28.880Z,11.73
2022-10-17T06:36:18.549Z,11.77
2022-10-17T06:39:00.245Z,11.67
2022-10-17T06:41:43.953Z,11.52
2022-10-17T06:44:49.926Z,11.65
2022-10-17T06:47:38.737Z,11.63
2022-10-17T06:50:27.170Z,11.76
2022-10-17T06:53:05.545Z,11.79
2022-10-17T06:55:39.064Z,11.77
2022-10-17T06:58:18.839Z,11.91
2022-10-17T07:00:48.474Z,11.98
2022-10-17T07:03:44.028Z,11.67
2022-10-17T07:06:19.425Z,11.93
2022-10-17T07:08:51.360Z,12.06
2022-10-17T07:11:21.341Z,12.03
2022-10-17T07:14:08.749Z,12.31
2022-10-17T07:17:16.255Z,12.46
2022-10-17T07:20:09.546Z,12.44
2022-10-17T07:22:56.967Z,12.80
2022-10-17T07:25:45.309Z,12.71
2022-10-17T07:28:55.050Z,12.91
2022-10-17T07:31:49.131Z,12.99
2022-10-17T07:34:31.636Z,13.14
2022-10-17T07:37:07.231Z,13.10
2022-10-17T07:39:57.322Z,13.40
2022-10-17T07:42:42.908Z,13.50
2022-10-17T07:45:32.536Z,13.58
2022-10-17T07:48:18.430Z,13.68
2022-10-17T07:51:33.719Z,13.89
2022-10-17T07:54:25.299Z,13.85
2022-10-17T07:57:27.628Z,13.91
2022-10-17T08:00:35.319Z,14.14
2022-10-17T08:03:11.256Z,14.16
2022-10-17T08:06:11.024Z,14.19
2022-10-17T08:09:04.066Z,14.40
2022-10-17T08:12:00.148Z,14.58
2022-10-17T08:14:58.009Z,15.03
2022-10-17T08:17:51.747Z,15.22
2022-10-17T08:20:41.752Z,15.25
2022-10-17T08:23:38.019Z,15.37
2022-10-17T08:26:25.514Z,15.71
2022-10-17T08:29:32.997Z,15.89
2022-10-17T08:32:33.021Z,15.88
2022-10-17T08:35:41.109Z,16.12
2022-10-17T08:38:35.356Z,16.12
2022-10-17T08:41:40.324Z,16.37
2022-10-17T08:44:16.440Z,16.54
2022-10-17T08:47:12.735Z,16.24
2022-10-17T08:50:04.420Z,16.83
2022-10-17T08:53:16.297Z,17.06
2022-10-17T08:56:15.360Z,17.28
2022-10-17T09:02:15.920Z,17.43
2022-10-17T09:05:13.786Z,17.63
2022-10-17T09:08:32.048Z,17.46
2022-10-17T09:11:40.279Z,17.58
2022-10-17T09:14:32.988Z,17.79
2022-10-17T09:17:20.625Z,18.27
2022-10-17T09:20:30.077Z,17.90
2022-10-17T09:23:28.611Z,18.70
2022-10-17T09:26:16.249Z,18.49
2022-10-17T09:28:59.681Z,18.50
2022-10-17T09:31:33.820Z,18.54
2022-10-17T09:34:31.151Z,18.90
2022-10-17T09:37:14.258Z,19.24
2022-10-17T09:40:05.248Z,19.50
2022-10-17T09:42:42.215Z,19.50
2022-10-17T09:45:30.402Z,19.40
2022-10-17T09:49:05.286Z,19.62
2022-10-17T09:51:45.802Z,20.08
2022-10-17T09:54:34.808Z,20.00
2022-10-17T09:57:45.289Z,19.98
2022-10-17T10:00:46.584Z,20.09
2022-10-17T10:03:38.991Z,20.28
2022-10-17T10:06:43.061Z,20.31
2022-10-17T10:09:31.036Z,20.44
2022-10-17T10:12:23.321Z,20.61
2022-10-17T10:14:58.077Z,20.96
2022-10-17T10:17:48.355Z,21.60
2022-10-17T10:20:35.535Z,21.61
2022-10-17T11:58:21.194Z,24.12
2022-10-17T12:01:10.152Z,24.42
2022-10-17T12:04:04.542Z,23.97
2022-10-17T12:07:09.471Z,24.75
2022-10-17T12:09:42.549Z,24.78
2022-10-17T12:12:36.114Z,24.73
2022-10-17T12:15:35.803Z,24.81
2022-10-17T12:18:22.865Z,25.25
2022-10-17T12:21:01.847Z,25.19
2022-10-17T12:23:36.652Z,25.47
2022-10-17T12:26:45.771Z,25.56
2022-10-17T12:29:36.957Z,25.61
2022-10-17T12:32:46.890Z,25.72
2022-10-17T12:35:38.137Z,26.08
2022-10-17T12:38:31.091Z,25.77
2022-10-17T12:41:03.150Z,25.57
2022-10-17T12:43:47.416Z,25.32
2022-10-17T12:47:12.376Z,25.19
2022-10-17T12:52:39.184Z,25.05
2022-10-17T12:55:23.799Z,25.33
2022-10-17T12:57:53.269Z,25.93
2022-10-17T13:00:59.818Z,25.78
2022-10-17T13:06:55.488Z,26.08
2022-10-17T13:09:51.008Z,24.76
2022-10-17T13:12:34.036Z,25.72
2022-10-17T13:15:26.018Z,25.82
2022-10-17T13:18:12.249Z,25.91
2022-10-17T13:21:15.051Z,25.60
2022-10-17T13:27:07.235Z,25.46
2022-10-17T13:29:49.818Z,25.58
2022-10-17T13:32:45.371Z,25.53
2022-10-17T13:35:41.906Z,25.86
2022-10-17T13:38:27.986Z,26.39
2022-10-17T13:41:36.525Z,25.79
2022-10-17T13:47:40.052Z,25.53
2022-10-17T13:50:47.983Z,25.58
2022-10-17T13:53:29.853Z,25.99
2022-10-17T13:56:30.256Z,25.74
2022-10-17T13:59:32.657Z,25.71
2022-10-17T14:02:09.661Z,25.35
2022-10-17T14:05:18.938Z,25.57
2022-10-17T14:08:14.308Z,25.19
2022-10-17T14:11:04.546Z,25.19
2022-10-17T14:13:44.738Z,25.48
2022-10-17T14:16:47.913Z,25.53
2022-10-17T14:19:46.026Z,25.27
2022-10-17T14:22:37.328Z,24.70
2022-10-17T14:25:49.721Z,24.60
2022-10-17T14:28:18.803Z,24.88
2022-10-17T14:31:02.321Z,24.83
2022-10-17T14:33:56.869Z,24.60
2022-10-17T14:36:45.784Z,24.66
2022-10-17T14:39:37.010Z,24.58
2022-10-17T14:43:01.834Z,24.25
2022-10-17T14:45:52.016Z,24.24
2022-10-17T14:48:43.439Z,24.12
2022-10-17T14:51:50.403Z,24.57
2022-10-17T14:54:33.931Z,24.19
2022-10-17T14:57:27.006Z,24.32
2022-10-17T15:00:40.051Z,24.48
2022-10-17T15:03:22.003Z,24.93
2022-10-17T15:06:27.138Z,24.64
2022-10-17T15:08:56.634Z,24.55
2022-10-17T15:11:28.189Z,24.12
2022-10-17T15:14:08.068Z,24.37
2022-10-17T15:16:45.688Z,24.29
2022-10-17T15:19:28.430Z,24.59
2022-10-17T15:22:13.547Z,24.20
2022-10-17T15:24:55.665Z,23.96
2022-10-17T15:27:35.576Z,23.95
2022-10-17T15:30:27.889Z,24.23
2022-10-17T15:33:17.490Z,23.46
2022-10-17T15:36:02.373Z,23.72
2022-10-17T15:38:51.103Z,23.33
2022-10-17T15:41:32.236Z,23.41
2022-10-17T15:44:13.010Z,23.32
2022-10-17T15:46:46.574Z,23.22
2022-10-17T15:49:26.149Z,23.32
2022-10-17T15:52:11.064Z,23.27
2022-10-17T15:55:05.475Z,23.03
2022-10-17T15:57:41.607Z,22.87
2022-10-17T16:00:23.280Z,22.74
2022-10-17T16:03:01.978Z,22.86
2022-10-17T16:05:51.931Z,22.82
2022-10-17T16:08:41.974Z,22.73
2022-10-17T16:11:19.315Z,22.56
2022-10-17T16:14:02.779Z,22.90
2022-10-17T16:16:34.056Z,22.74
2022-10-17T16:19:06.357Z,22.93
2022-10-17T16:21:42.786Z,23.07
2022-10-17T16:24:14.363Z,22.42
2022-10-17T16:26:44.407Z,22.36
2022-10-17T16:29:43.616Z,22.24
2022-10-17T16:32:11.189Z,21.95
2022-10-17T16:34:56.431Z,21.98
2022-10-17T16:37:56.080Z,22.26
2022-10-17T16:40:29.737Z,22.50
2022-10-17T16:42:59.070Z,22.60
2022-10-17T16:45:28.923Z,22.64
2022-10-17T16:47:59.667Z,22.70
2022-10-17T16:50:31.832Z,22.61
2022-10-17T16:52:59.134Z,22.61
2022-10-17T16:55:28.464Z,22.58
2022-10-17T16:57:56.157Z,22.41
2022-10-17T17:00:30.669Z,22.41
2022-10-17T17:03:27.275Z,22.36
2022-10-17T17:06:00.390Z,22.30
2022-10-17T17:08:52.919Z,22.33
2022-10-17T17:11:44.085Z,22.20
2022-10-17T17:14:20.476Z,22.07
2022-10-17T17:17:48.429Z,21.70
2022-10-17T17:20:24.406Z,21.71
2022-10-17T17:23:18.718Z,21.71
2022-10-17T17:25:51.632Z,21.08
2022-10-17T17:28:20.893Z,20.82
2022-10-17T17:31:04.299Z,21.08
2022-10-17T17:33:31.432Z,21.29
2022-10-17T17:36:29.944Z,21.40
2022-10-17T17:39:26.778Z,21.20
2022-10-17T17:42:14.506Z,21.15
2022-10-17T17:44:50.372Z,21.31
2022-10-17T17:47:19.827Z,21.33
2022-10-17T17:50:19.250Z,21.37
2022-10-17T17:53:24.128Z,20.99
2022-10-17T17:56:16.939Z,20.63
2022-10-17T17:58:49.406Z,20.51
2022-10-17T18:01:38.189Z,20.62
2022-10-17T18:04:17.107Z,20.50
2022-10-17T18:07:15.187Z,20.53
2022-10-17T18:09:51.713Z,20.53
2022-10-17T18:12:39.244Z,20.51
2022-10-17T18:15:13.403Z,20.58
2022-10-17T18:17:44.423Z,20.58
2022-10-17T18:20:21.561Z,20.55
2022-10-17T18:23:06.675Z,20.46
2022-10-17T18:25:38.044Z,20.38
2022-10-17T18:28:08.793Z,20.10
2022-10-17T18:30:38.779Z,20.22
2022-10-17T18:33:13.684Z,19.92
2022-10-17T18:36:07.320Z,19.77
2022-10-17T18:38:55.240Z,19.48
2022-10-17T18:41:43.320Z,19.75
2022-10-17T18:44:12.948Z,19.85
2022-10-17T18:49:21.504Z,19.06
2022-10-17T18:51:51.718Z,18.70
2022-10-17T18:54:36.518Z,19.25
2022-10-17T18:57:06.538Z,19.19
2022-10-17T18:59:51.663Z,19.37
2022-10-17T19:02:38.127Z,19.59
2022-10-17T19:05:10.884Z,19.67
2022-10-17T19:07:44.691Z,19.63
2022-10-17T19:10:22.296Z,19.69
2022-10-17T19:12:49.836Z,19.34
2022-10-17T19:15:23.754Z,19.59
2022-10-17T19:17:58.412Z,19.56
2022-10-17T19:20:39.401Z,19.46
2022-10-17T19:23:16.806Z,19.27
2022-10-17T19:26:02.963Z,19.33
2022-10-17T19:28:57.874Z,19.22
2022-10-17T19:31:31.885Z,19.22
2022-10-17T19:34:01.691Z,19.33
2022-10-17T19:37:10.078Z,19.02
2022-10-17T19:39:52.556Z,18.89
2022-10-17T19:42:21.331Z,18.78
2022-10-17T19:44:54.122Z,18.38
2022-10-17T19:47:39.273Z,18.19
2022-10-17T19:50:15.358Z,18.44
2022-10-17T19:52:42.543Z,18.61
2022-10-17T19:55:18.106Z,18.70
2022-10-17T19:57:48.118Z,18.72
2022-10-17T20:00:48.613Z,18.67
2022-10-17T20:03:28.153Z,18.50
2022-10-17T20:06:06.679Z,18.51
2022-10-17T20:08:34.169Z,18.51
2022-10-17T20:11:30.365Z,18.56
2022-10-17T20:14:06.975Z,18.56
2022-10-17T20:16:38.642Z,18.43
2022-10-17T20:19:16.811Z,18.34
2022-10-17T20:22:05.519Z,18.42
2022-10-17T20:24:42.676Z,18.36
2022-10-17T20:27:55.467Z,18.28
2022-10-17T20:30:24.275Z,18.33
2022-10-17T20:32:58.653Z,18.17
2022-10-17T20:35:46.509Z,17.93
2022-10-17T20:38:37.001Z,17.92
2022-10-17T20:41:09.604Z,17.95
2022-10-17T20:43:46.113Z,17.90
2022-10-17T20:46:36.915Z,18.01
2022-10-17T20:49:22.468Z,18.01
2022-10-17T20:51:49.624Z,17.79
2022-10-17T20:54:53.875Z,17.47
2022-10-17T20:57:29.623Z,17.61
2022-10-17T21:00:20.069Z,17.69
2022-10-17T21:05:25.134Z,17.45
2022-10-17T21:08:02.878Z,17.36
2022-10-17T21:10:35.278Z,17.54
2022-10-17T21:13:03.275Z,17.47
2022-10-17T21:15:33.606Z,17.38
2022-10-17T21:18:03.884Z,17.45
2022-10-17T21:20:31.958Z,17.23
2022-10-17T21:23:05.289Z,17.15
2022-10-17T21:25:49.599Z,16.53
2022-10-17T21:28:28.535Z,16.72
2022-10-17T21:31:18.645Z,16.49
2022-10-17T21:34:12.639Z,16.41
2022-10-17T21:36:43.920Z,16.53
2022-10-17T21:39:14.812Z,16.76
2022-10-17T21:41:48.407Z,16.95
2022-10-17T21:44:36.634Z,16.87
2022-10-17T21:47:17.229Z,16.32
2022-10-17T21:49:50.839Z,16.39
2022-10-17T21:52:19.602Z,16.62
2022-10-17T21:54:55.314Z,16.94
2022-10-17T21:57:26.414Z,17.08
2022-10-17T22:00:15.901Z,16.98
2022-10-17T22:02:45.737Z,17.23
2022-10-17T22:05:22.516Z,17.25
2022-10-17T22:07:57.322Z,17.30
2022-10-17T22:10:27.808Z,17.34
2022-10-17T22:12:55.213Z,17.41
2022-10-17T22:15:34.004Z,17.15
2022-10-17T22:18:21.563Z,17.17
2022-10-17T22:21:06.198Z,17.14
2022-10-17T22:23:40.792Z,17.29
2022-10-17T22:26:18.458Z,17.26
2022-10-17T22:29:09.059Z,17.24
2022-10-17T22:31:43.865Z,17.24
2022-10-17T22:34:22.519Z,17.14
2022-10-17T22:36:56.277Z,17.19
2022-10-17T22:39:23.415Z,17.34
2022-10-17T22:41:56.130Z,17.27
2022-10-17T22:44:46.729Z,17.34
2022-10-17T22:47:21.475Z,17.17
2022-10-17T22:49:52.039Z,17.24
2022-10-17T22:52:29.018Z,17.12
2022-10-17T22:54:57.650Z,17.09
2022-10-17T22:57:30.947Z,16.97
2022-10-17T23:00:08.605Z,16.65
2022-10-17T23:02:36.212Z,16.50
2022-10-17T23:05:05.663Z,16.10
2022-10-17T23:07:40.691Z,16.19
2022-10-17T23:10:13.561Z,16.14
2022-10-17T23:12:58.617Z,16.31
2022-10-17T23:15:32.294Z,16.40
2022-10-17T23:21:01.479Z,16.20
2022-10-17T23:23:29.101Z,15.92
2022-10-17T23:26:17.906Z,15.76
2022-10-17T23:28:44.984Z,15.59
2022-10-17T23:31:22.222Z,15.49
2022-10-17T23:33:50.709Z,15.30
2022-10-17T23:36:42.598Z,15.27
2022-10-17T23:39:21.391Z,15.80
2022-10-17T23:42:18.807Z,16.12
2022-10-17T23:44:56.923Z,16.25
2022-10-17T23:47:32.259Z,16.22
2022-10-17T23:50:10.568Z,16.04
2022-10-17T23:53:03.479Z,15.84
2022-10-17T23:55:41.160Z,16.27
2022-10-17T23:58:11.395Z,15.97
